createdAt,value
2018-08-03T00:01:33.320Z,102142.02
2018-08-03T00:04:37.842Z,102141.43
2018-08-03T00:07:41.090Z,102145.09
2018-08-03T00:10:45.117Z,102145.20
2018-08-03T00:13:48.415Z,102142.67
2018-08-03T00:16:51.731Z,102142.97
2018-08-03T00:19:55.141Z,102141.99
2018-08-03T00:22:58.419Z,102144.53
2018-08-03T00:26:01.711Z,102149.14
2018-08-03T00:29:05.013Z,102153.90
2018-08-03T00:32:08.321Z,102154.68
2018-08-03T00:35:11.578Z,102144.06
2018-08-03T00:38:15.835Z,102140.92
2018-08-03T00:41:19.107Z,102140.70
2018-08-03T00:44:22.279Z,102133.80
2018-08-03T00:47:25.611Z,102136.25
2018-08-03T00:50:28.909Z,102137.48
2018-08-03T00:53:32.259Z,102138.40
2018-08-03T00:56:35.582Z,102134.35
2018-08-03T00:59:38.796Z,102133.15
2018-08-03T01:02:41.980Z,102133.37
2018-08-03T01:05:45.463Z,102133.33
2018-08-03T01:08:48.664Z,102133.17
2018-08-03T01:11:51.988Z,102130.08
2018-08-03T01:14:55.275Z,102130.42
2018-08-03T01:17:58.468Z,102131.37
2018-08-03T01:21:01.751Z,102132.86
2018-08-03T01:24:04.947Z,102135.75
2018-08-03T01:27:08.243Z,102136.17
2018-08-03T01:30:12.957Z,102131.19
2018-08-03T01:33:18.147Z,102134.55
2018-08-03T01:36:21.442Z,102136.92
2018-08-03T01:39:24.719Z,102138.62
2018-08-03T01:42:27.944Z,102139.05
2018-08-03T01:45:31.239Z,102141.38
2018-08-03T01:48:34.498Z,102146.91
2018-08-03T01:51:37.703Z,102141.81
2018-08-03T01:54:41.008Z,102143.98
2018-08-03T01:57:45.339Z,102150.80
2018-08-03T02:00:48.562Z,102151.37
2018-08-03T02:03:51.820Z,102151.93
2018-08-03T02:06:55.128Z,102154.76
2018-08-03T02:09:58.316Z,102148.47
2018-08-03T02:13:01.613Z,102148.72
2018-08-03T02:16:04.784Z,102144.91
2018-08-03T02:19:08.257Z,102149.19
2018-08-03T02:22:11.488Z,102149.56
2018-08-03T02:25:15.648Z,102143.86
2018-08-03T02:28:18.926Z,102141.80
2018-08-03T02:31:22.259Z,102143.90
2018-08-03T02:34:25.437Z,102144.06
2018-08-03T02:37:28.630Z,102143.58
2018-08-03T02:40:31.833Z,102143.42
2018-08-03T02:43:35.132Z,102144.35
2018-08-03T02:46:38.649Z,102144.97
2018-08-03T02:49:42.456Z,102142.28
2018-08-03T02:52:45.711Z,102144.71
2018-08-03T02:55:48.999Z,102144.45
2018-08-03T02:58:52.333Z,102147.87
2018-08-03T03:01:55.623Z,102147.85
2018-08-03T03:04:58.775Z,102151.42
2018-08-03T03:08:02.119Z,102152.71
2018-08-03T03:11:05.405Z,102153.95
2018-08-03T03:14:09.631Z,102155.76
2018-08-03T03:17:13.931Z,102160.23
2018-08-03T03:20:17.167Z,102167.49
2018-08-03T03:23:20.418Z,102168.57
2018-08-03T03:26:23.718Z,102170.78
2018-08-03T03:29:27.265Z,102169.62
2018-08-03T03:32:30.589Z,102172.91
2018-08-03T03:35:33.827Z,102179.74
2018-08-03T03:38:37.167Z,102187.40
2018-08-03T03:41:40.419Z,102191.25
2018-08-03T03:44:44.567Z,102188.20
2018-08-03T03:47:47.898Z,102193.13
2018-08-03T03:50:51.839Z,102194.74
2018-08-03T03:53:55.218Z,102192.46
2018-08-03T03:56:58.442Z,102196.21
2018-08-03T04:00:01.839Z,102199.34
2018-08-03T04:03:05.170Z,102195.96
2018-08-03T04:06:08.460Z,102190.40
2018-08-03T04:09:14.045Z,102193.06
2018-08-03T04:12:17.303Z,102195.10
2018-08-03T04:15:20.489Z,102199.84
2018-08-03T04:18:23.778Z,102194.19
2018-08-03T04:21:27.079Z,102190.39
2018-08-03T04:24:30.328Z,102193.67
2018-08-03T04:27:34.017Z,102197.89
2018-08-03T04:30:37.296Z,102189.02
2018-08-03T04:33:40.599Z,102192.16
2018-08-03T04:36:45.684Z,102185.11
2018-08-03T04:39:49.063Z,102186.10
2018-08-03T04:42:52.331Z,102189.69
2018-08-03T04:45:55.555Z,102190.70
2018-08-03T04:48:58.849Z,102192.24
2018-08-03T04:52:03.173Z,102197.19
2018-08-03T04:55:06.448Z,102200.00
2018-08-03T04:58:09.735Z,102195.33
2018-08-03T05:01:14.191Z,102202.92
2018-08-03T05:04:17.464Z,102201.39
2018-08-03T05:07:20.754Z,102200.98
2018-08-03T05:10:23.942Z,102207.32
2018-08-03T05:13:27.279Z,102207.87
2018-08-03T05:16:30.524Z,102203.64
2018-08-03T05:19:33.667Z,102203.00
2018-08-03T05:22:37.161Z,102212.89
2018-08-03T05:25:40.438Z,102213.44
2018-08-03T05:28:44.732Z,102213.30
2018-08-03T05:31:47.954Z,102218.40
2018-08-03T05:34:51.139Z,102218.52
2018-08-03T05:37:54.298Z,102218.72
2018-08-03T05:40:57.632Z,102213.50
2018-08-03T05:44:00.819Z,102210.72
2018-08-03T05:47:04.170Z,102215.63
2018-08-03T05:50:07.774Z,102214.67
2018-08-03T05:53:11.057Z,102215.46
2018-08-03T05:56:15.422Z,102215.65
2018-08-03T05:59:18.788Z,102217.23
2018-08-03T06:02:22.079Z,102217.68
2018-08-03T06:05:25.272Z,102216.20
2018-08-03T06:08:28.671Z,102213.57
2018-08-03T06:11:31.980Z,102214.49
2018-08-03T06:14:35.261Z,102217.62
2018-08-03T06:17:38.989Z,102220.82
2018-08-03T06:20:42.293Z,102213.81
2018-08-03T06:23:45.663Z,102213.38
2018-08-03T06:26:49.008Z,102213.53
2018-08-03T06:29:52.261Z,102218.33
2018-08-03T06:32:55.588Z,102216.17
2018-08-03T06:35:58.869Z,102216.85
2018-08-03T06:39:02.175Z,102215.12
2018-08-03T06:42:05.476Z,102216.00
2018-08-03T06:45:08.766Z,102218.83
2018-08-03T06:48:12.077Z,102218.58
2018-08-03T06:51:16.169Z,102212.25
2018-08-03T06:54:19.519Z,102212.81
2018-08-03T06:57:22.779Z,102208.96
2018-08-03T07:00:26.083Z,102210.67
2018-08-03T07:03:29.424Z,102207.47
2018-08-03T07:06:32.672Z,102206.08
2018-08-03T07:09:35.970Z,102205.83
2018-08-03T07:12:39.382Z,102206.25
2018-08-03T07:15:43.385Z,102199.08
2018-08-03T07:18:46.802Z,102197.81
2018-08-03T07:21:50.232Z,102198.47
2018-08-03T07:24:53.629Z,102195.80
2018-08-03T07:27:57.908Z,102185.95
2018-08-03T07:31:01.221Z,102192.18
2018-08-03T07:34:05.463Z,102185.88
2018-08-03T07:37:09.883Z,102192.48
2018-08-03T07:40:13.260Z,102187.98
2018-08-03T07:43:16.790Z,102186.39
2018-08-03T07:46:20.056Z,102182.64
2018-08-03T07:49:23.361Z,102182.77
2018-08-03T07:52:26.670Z,102183.23
2018-08-03T07:55:30.020Z,102184.89
2018-08-03T07:58:33.346Z,102183.82
2018-08-03T08:01:37.696Z,102182.49
2018-08-03T08:04:41.972Z,102177.92
2018-08-03T08:07:45.388Z,102175.08
2018-08-03T08:10:48.710Z,102177.04
2018-08-03T08:13:52.109Z,102170.83
2018-08-03T08:16:55.411Z,102167.15
2018-08-03T08:19:58.627Z,102165.72
2018-08-03T08:23:01.912Z,102164.14
2018-08-03T08:26:05.312Z,102169.54
2018-08-03T08:29:08.588Z,102172.54
2018-08-03T08:32:11.991Z,102174.62
2018-08-03T08:35:15.442Z,102167.77
2018-08-03T08:38:18.652Z,102167.66
2018-08-03T08:41:21.993Z,102169.72
2018-08-03T08:45:34.116Z,102166.13
2018-08-03T08:48:37.490Z,102163.74
2018-08-03T08:51:40.804Z,102157.38
2018-08-03T08:54:45.146Z,102159.70
2018-08-03T08:57:48.452Z,102154.38
2018-08-03T09:00:51.842Z,102147.70
2018-08-03T09:03:55.336Z,102150.63
2018-08-03T09:06:58.611Z,102146.09
2018-08-03T09:10:02.004Z,102143.60
2018-08-03T09:13:05.373Z,102144.50
2018-08-03T09:16:09.012Z,102143.88
2018-08-03T09:19:12.374Z,102144.23
2018-08-03T09:22:15.727Z,102136.63
2018-08-03T09:25:20.026Z,102132.98
2018-08-03T09:28:23.393Z,102132.56
2018-08-03T09:31:26.736Z,102129.21
2018-08-03T09:34:30.226Z,102125.87
2018-08-03T09:37:33.648Z,102117.19
2018-08-03T09:40:37.055Z,102117.60
2018-08-03T09:43:40.308Z,102116.67
2018-08-03T09:46:44.291Z,102109.52
2018-08-03T09:49:47.556Z,102105.96
2018-08-03T09:52:51.911Z,102100.93
2018-08-03T09:55:55.155Z,102100.37
2018-08-03T09:58:58.427Z,102089.58
2018-08-03T10:02:01.856Z,102082.01
2018-08-03T10:05:05.281Z,102078.95
2018-08-03T10:08:08.551Z,102072.09
2018-08-03T10:11:11.856Z,102069.83
2018-08-03T10:14:16.749Z,102065.13
2018-08-03T10:17:19.941Z,102064.26
2018-08-03T10:20:23.278Z,102061.37
2018-08-03T10:23:26.534Z,102059.50
2018-08-03T10:26:30.079Z,102054.98
2018-08-03T10:29:33.361Z,102053.92
2018-08-03T10:32:36.803Z,102052.51
2018-08-03T10:35:40.058Z,102050.66
2018-08-03T10:38:43.812Z,102048.80
2018-08-03T10:41:47.034Z,102037.83
2018-08-03T10:44:50.216Z,102039.09
2018-08-03T10:47:53.571Z,102035.54
2018-08-03T10:50:56.854Z,102029.47
2018-08-03T10:54:00.081Z,102029.39
2018-08-03T10:57:03.713Z,102026.86
2018-08-03T11:00:07.786Z,102020.76
2018-08-03T11:03:11.096Z,102022.69
2018-08-03T11:06:15.480Z,102019.91
2018-08-03T11:09:18.663Z,102011.45
2018-08-03T11:12:21.808Z,102013.66
2018-08-03T11:15:25.030Z,102008.90
2018-08-03T11:18:28.290Z,102005.74
2018-08-03T11:21:31.462Z,102003.04
2018-08-03T11:24:34.797Z,102000.30
2018-08-03T11:27:38.091Z,102002.28
2018-08-03T11:30:41.500Z,101996.98
2018-08-03T11:33:45.800Z,101987.89
2018-08-03T11:36:49.082Z,101984.75
2018-08-03T11:39:52.511Z,101982.71
2018-08-03T11:42:55.886Z,101974.19
2018-08-03T11:45:59.222Z,101972.01
2018-08-03T11:49:02.509Z,101974.12
2018-08-03T11:52:05.858Z,101970.14
2018-08-03T11:55:09.191Z,101965.41
2018-08-03T11:58:12.521Z,101961.19
2018-08-03T12:01:16.151Z,101958.54
2018-08-03T12:04:19.473Z,101951.67
2018-08-03T12:07:22.809Z,101949.39
2018-08-03T12:10:27.091Z,101947.64
2018-08-03T12:13:30.424Z,101934.74
2018-08-03T12:16:33.769Z,101935.75
2018-08-03T12:19:37.002Z,101932.59
2018-08-03T12:22:40.151Z,101932.30
2018-08-03T12:25:44.709Z,101925.99
2018-08-03T12:28:48.009Z,101926.89
2018-08-03T12:31:51.323Z,101922.36
2018-08-03T12:34:54.567Z,101916.05
2018-08-03T12:37:57.787Z,101912.51
2018-08-03T12:41:01.127Z,101908.35
2018-08-03T12:44:04.621Z,101909.53
2018-08-03T12:47:09.058Z,101908.28
2018-08-03T12:50:12.241Z,101910.59
2018-08-03T12:53:15.585Z,101900.13
2018-08-03T12:56:18.860Z,101904.67
2018-08-03T12:59:22.114Z,101906.42
2018-08-03T13:02:27.414Z,101898.56
2018-08-03T13:05:30.703Z,101895.55
2018-08-03T13:08:34.164Z,101893.17
2018-08-03T13:11:37.705Z,101889.21
2018-08-03T13:14:40.971Z,101889.68
2018-08-03T13:17:45.316Z,101883.78
2018-08-03T13:20:48.593Z,101882.00
2018-08-03T13:23:58.293Z,101878.27
2018-08-03T13:27:01.659Z,101870.04
2018-08-03T13:30:05.862Z,101873.27
2018-08-03T13:33:09.158Z,101867.74
2018-08-03T13:36:12.707Z,101863.48
2018-08-03T13:39:16.419Z,101856.73
2018-08-03T13:42:19.739Z,101855.94
2018-08-03T13:45:23.081Z,101843.05
2018-08-03T13:48:26.348Z,101845.30
2018-08-03T13:51:29.654Z,101841.90
2018-08-03T13:54:32.966Z,101836.54
2018-08-03T13:57:36.242Z,101831.47
2018-08-03T14:00:39.538Z,101827.56
2018-08-03T14:03:42.721Z,101823.66
2018-08-03T14:06:51.131Z,101819.52
2018-08-03T14:09:54.548Z,101813.50
2018-08-03T14:12:57.731Z,101810.41
2018-08-03T14:16:00.882Z,101812.64
2018-08-03T14:19:04.224Z,101811.49
2018-08-03T14:22:07.520Z,101802.72
2018-08-03T14:25:10.827Z,101798.53
2018-08-03T14:28:15.438Z,101796.54
2018-08-03T14:31:18.644Z,101791.39
2018-08-03T14:34:24.900Z,101790.77
2018-08-03T14:37:28.196Z,101783.67
2018-08-03T14:40:31.435Z,101788.81
2018-08-03T14:43:34.823Z,101787.60
2018-08-03T14:46:39.098Z,101786.76
2018-08-03T14:49:42.394Z,101778.61
2018-08-03T14:52:46.258Z,101777.22
2018-08-03T14:55:49.555Z,101771.73
2018-08-03T14:58:52.775Z,101774.53
2018-08-03T15:01:56.180Z,101769.84
2018-08-03T15:04:59.426Z,101766.62
2018-08-03T15:08:03.881Z,101762.28
2018-08-03T15:11:07.251Z,101765.05
2018-08-03T15:14:10.462Z,101762.44
2018-08-03T15:17:14.419Z,101763.60
2018-08-03T15:20:17.555Z,101755.85
2018-08-03T15:23:20.728Z,101757.60
2018-08-03T15:26:24.020Z,101753.38
2018-08-03T15:29:27.292Z,101749.03
2018-08-03T15:32:30.619Z,101748.68
2018-08-03T15:35:34.065Z,101748.78
2018-08-03T15:38:37.375Z,101744.24
2018-08-03T15:41:40.630Z,101747.74
2018-08-03T15:44:44.577Z,101745.94
2018-08-03T15:47:47.700Z,101744.75
2018-08-03T15:50:51.013Z,101739.08
2018-08-03T15:53:54.331Z,101739.00
2018-08-03T15:56:57.661Z,101733.33
2018-08-03T16:00:00.952Z,101728.40
2018-08-03T16:03:04.220Z,101726.73
2018-08-03T16:06:07.425Z,101727.38
2018-08-03T16:09:11.175Z,101726.32
2018-08-03T16:12:15.447Z,101723.05
2018-08-03T16:15:18.690Z,101725.16
2018-08-03T16:18:21.919Z,101718.81
2018-08-03T16:21:25.234Z,101714.31
2018-08-03T16:24:28.427Z,101712.67
2018-08-03T16:27:31.727Z,101710.09
2018-08-03T16:30:35.027Z,101706.11
2018-08-03T16:33:38.355Z,101701.73
2018-08-03T16:36:41.607Z,101703.42
2018-08-03T16:39:45.657Z,101701.87
2018-08-03T16:42:48.929Z,101695.68
2018-08-03T16:45:52.230Z,101696.36
2018-08-03T16:48:55.389Z,101699.81
2018-08-03T16:51:58.607Z,101694.70
2018-08-03T16:55:01.921Z,101695.35
2018-08-03T16:58:05.248Z,101694.63
2018-08-03T17:01:08.411Z,101688.31
2018-08-03T17:04:11.730Z,101689.01
2018-08-03T17:07:15.835Z,101690.43
2018-08-03T17:10:19.041Z,101685.74
2018-08-03T17:13:22.850Z,101684.03
2018-08-03T17:16:26.049Z,101680.71
2018-08-03T17:19:29.306Z,101678.52
2018-08-03T17:22:32.631Z,101679.71
2018-08-03T17:25:35.998Z,101684.60
2018-08-03T17:28:39.240Z,101679.95
2018-08-03T17:31:42.576Z,101676.83
2018-08-03T17:34:46.564Z,101677.15
2018-08-03T17:37:49.864Z,101677.80
2018-08-03T17:40:53.246Z,101673.57
2018-08-03T17:43:56.372Z,101673.93
2018-08-03T17:46:59.658Z,101674.80
2018-08-03T17:50:03.051Z,101670.31
2018-08-03T17:53:06.319Z,101672.81
2018-08-03T17:56:09.653Z,101673.77
2018-08-03T17:59:12.883Z,101672.49
2018-08-03T18:02:16.203Z,101674.70
2018-08-03T18:05:19.470Z,101672.19
2018-08-03T18:08:22.783Z,101671.22
2018-08-03T18:11:25.978Z,101673.97
2018-08-03T18:14:29.209Z,101676.13
2018-08-03T18:17:32.490Z,101678.08
2018-08-03T18:20:35.803Z,101677.90
2018-08-03T18:23:39.100Z,101679.80
2018-08-03T18:26:42.379Z,101679.63
2018-08-03T18:29:46.562Z,101682.24
2018-08-03T18:32:49.959Z,101685.04
2018-08-03T18:35:53.635Z,101685.02
2018-08-03T18:38:56.925Z,101687.67
2018-08-03T18:42:00.209Z,101685.90
2018-08-03T18:45:03.495Z,101690.05
2018-08-03T18:48:06.926Z,101696.83
2018-08-03T18:51:10.190Z,101696.23
2018-08-03T18:54:14.128Z,101700.77
2018-08-03T18:57:17.493Z,101701.49
2018-08-03T19:00:20.794Z,101710.24
2018-08-03T19:03:24.126Z,101717.25
2018-08-03T19:06:27.444Z,101710.15
2018-08-03T19:09:30.722Z,101709.14
2018-08-03T19:12:34.013Z,101713.41
2018-08-03T19:15:37.375Z,101715.63
2018-08-03T19:18:40.615Z,101718.72
2018-08-03T19:21:44.546Z,101726.23
2018-08-03T19:24:47.820Z,101729.31
2018-08-03T19:27:51.121Z,101730.39
2018-08-03T19:30:54.515Z,101733.13
2018-08-03T19:33:57.796Z,101741.49
2018-08-03T19:37:01.090Z,101745.44
2018-08-03T19:40:04.654Z,101755.82
2018-08-03T19:46:10.290Z,101756.89
2018-08-03T19:49:14.720Z,101756.16
2018-08-03T19:52:18.047Z,101760.73
2018-08-03T19:55:21.366Z,101759.31
2018-08-03T19:58:24.694Z,101758.01
2018-08-03T20:01:27.981Z,101762.14
2018-08-03T20:04:31.323Z,101762.04
2018-08-03T20:07:34.795Z,101762.42
2018-08-03T20:10:37.975Z,101765.28
2018-08-03T20:13:41.367Z,101767.72
2018-08-03T20:16:45.216Z,101765.50
2018-08-03T20:19:48.516Z,101768.35
2018-08-03T20:22:51.785Z,101766.99
2018-08-03T20:25:56.439Z,101766.38
2018-08-03T20:28:59.698Z,101766.20
2018-08-03T20:32:02.930Z,101768.33
2018-08-03T20:35:06.634Z,101774.84
2018-08-03T20:38:09.778Z,101779.48
2018-08-03T20:41:12.995Z,101773.79
2018-08-03T20:44:16.408Z,101775.61
2018-08-03T20:47:20.638Z,101775.79
2018-08-03T20:50:24.019Z,101783.88
2018-08-03T20:53:27.347Z,101780.13
2018-08-03T20:56:30.624Z,101782.17
2018-08-03T20:59:34.259Z,101781.06
2018-08-03T21:02:37.522Z,101779.92
2018-08-03T21:05:40.896Z,101777.32
2018-08-03T21:08:46.521Z,101778.03
2018-08-03T21:11:49.766Z,101781.41
2018-08-03T21:14:53.087Z,101777.22
2018-08-03T21:17:57.379Z,101780.19
2018-08-03T21:21:00.728Z,101779.45
2018-08-03T21:24:04.203Z,101780.30
2018-08-03T21:27:07.632Z,101782.11
2018-08-03T21:30:11.440Z,101785.68
2018-08-03T21:33:15.805Z,101780.72
2018-08-03T21:36:19.137Z,101782.90
2018-08-03T21:39:22.381Z,101780.63
2018-08-03T21:42:25.716Z,101782.37
2018-08-03T21:45:29.037Z,101777.35
2018-08-03T21:48:32.301Z,101784.25
2018-08-03T21:51:35.591Z,101776.06
2018-08-03T21:54:38.929Z,101774.34
2018-08-03T21:57:42.234Z,101777.95
2018-08-03T22:00:46.202Z,101781.73
2018-08-03T22:03:49.531Z,101779.69
2018-08-03T22:06:53.019Z,101778.47
2018-08-03T22:09:56.315Z,101782.78
2018-08-03T22:12:59.617Z,101784.43
2018-08-03T22:16:02.780Z,101784.96
2018-08-03T22:19:06.075Z,101777.77
2018-08-03T22:22:09.369Z,101779.06
2018-08-03T22:25:12.597Z,101778.98
2018-08-03T22:28:16.575Z,101778.48
2018-08-03T22:31:19.884Z,101780.41
2018-08-03T22:34:23.428Z,101775.76
2018-08-03T22:37:27.706Z,101780.30
2018-08-03T22:40:30.917Z,101781.93
2018-08-03T22:43:34.184Z,101784.76
2018-08-03T22:46:37.417Z,101784.22
2018-08-03T22:49:40.773Z,101786.76
2018-08-03T22:52:45.014Z,101793.52
2018-08-03T22:55:48.291Z,101797.71
2018-08-03T22:58:51.603Z,101790.29
2018-08-03T23:01:54.855Z,101792.54
2018-08-03T23:04:58.204Z,101794.55
2018-08-03T23:08:01.679Z,101789.08
2018-08-03T23:11:05.923Z,101781.87
2018-08-03T23:14:09.154Z,101777.31
2018-08-03T23:17:12.431Z,101781.08
2018-08-03T23:20:16.773Z,101784.17
2018-08-03T23:23:20.151Z,101787.25
2018-08-03T23:26:23.443Z,101782.58
2018-08-03T23:29:27.168Z,101781.64
2018-08-03T23:32:30.436Z,101777.62
2018-08-03T23:35:33.734Z,101781.99
2018-08-03T23:38:36.886Z,101781.74
2018-08-03T23:41:40.123Z,101780.66
2018-08-03T23:44:43.876Z,101776.09
2018-08-03T23:47:47.142Z,101786.11
2018-08-03T23:50:50.444Z,101780.22
2018-08-03T23:53:53.728Z,101774.42
2018-08-03T23:56:57.042Z,101776.45
